Shell Beach, CA (93449)

6:21 AM PDT on September 17, 2014 (GMT -0700)
Pismo Beach, Shell Beach | Change Station
CLOSE
Current Station
Personal Weather Station
Location: Shell Beach, CA
Elevation: 134 ft
Nearby Weather Stations

Elev 134 ft 35.16 °N, 120.68 °W | Updated 6 seconds ago

Scattered Clouds
Scattered Clouds
56.8 °F
Feels Like 56.8 °F
N
0.9
Wind Variable Wind from East
Gusts 2.0 mph

Today
High -- | Low -- °F
--% Chance of Precip.
Yesterday
High -- | Low -- °F
Precip. -- in
6:47 AM 7:06 PM
Last Quarter, 36% visible
Pressure 29.80 in
Visibility 10.0 miles
Clouds Scattered Clouds 400 ft
Dew Point 54 °F
Humidity 90%
Rainfall 0.00 in
Snow Depth 1 in , 1 in , 0 in
UV 0.0 out of 12
Pollen 7.70 out of 12
Air Quality Not available.
Flu Activity Not available.
SPECI KSBP 171306Z 00000KT 10SM SCT004 12/11 A2980 RMK AO2 T01220111

More Conditions Fewer Conditions

Pressure 29.80 in
Visibility 10.0 miles
Clouds Scattered Clouds 400 ft
Dew Point 54 °F
Humidity 90%
Rainfall 0.00 in
Snow Depth 1 in , 1 in , 0 in
UV 0.0 out of 12
Pollen 7.70 out of 12
Air Quality Not available.
Flu Activity Not available.
SPECI KSBP 171306Z 00000KT 10SM SCT004 12/11 A2980 RMK AO2 T01220111

More Conditions Fewer Conditions

10-Day Weather Forecast

Almanac

Astronomy

Sep. 17, 2014 Rise Set
Actual Time 6:47 AM PDT 7:06 PM PDT
Civil Twilight 6:21 AM PDT 7:31 PM PDT
Nautical Twilight 5:51 AM PDT 8:01 PM PDT
Astronomical Twilight 5:21 AM PDT 8:31 PM PDT
Moon 1:00 AM PDT 3:11 PM PDT
Length of Visible Light 13h 10m
Length of Day
12h 19m
Tomorrow will be 2m 11s shorter.
Last Quarter, 36% of the Moon is Illuminated
Today
Last Quarter
Sep 24
New
Oct 1
First Quarter
Oct 8
Full
Oct 15
Last Quarter

Today's Extremes

State Highs State Lows

Community

WunderPhotos

Upload Photos

1,754,029 photos uploaded!

Nearby

Snow Depth

Station Depth Elevation
Summit Meadow 1 in 9122 ft
Spratt Creek 1 in 6200 ft
Hagan's Meadow 0 in 8000 ft
Echo Peak 0 in 7800 ft
Leavitt Meadows 1 in 7200 ft

Earthquake Activity

City Distance Mag. Time & Date
No recent earthquake activity has been reported nearby.
Minimum magnitude displayed is 2.5.

Coastal Water Temperatures

Place Temperature
No Stations Reporting

Nearby Weather Stations